Latest Coastal Weather Observations for Melbourne (Olympic Park)

IDV60701

Issued at 7:32 am EST Thursday 13 August 2020 (issued every 10 minutes, with the page automatically refreshed every 10 minutes)

About coastal observations | Map of coastal stations | Coastal observations for VIC | Marine services | Other Formats
Station Details ID: 086338 Name: MELBOURNE (OLYMPIC PARK) Lat: -37.83 Lon: 144.98 Height: 7.53 m
Data from the previous 72 hours. | See also: Recent months at Melbourne (Olympic Park)
Date/Time
EST
Wind Sea
Height
m
Swell Vis
km
Cloud Weather Temp
°C
Press
hPa
Rain since
9am
mm
Dir  Spd
kts
Gust
kts
Height
m
Period
s
Dir
13/07:30am N 7 11 - - - - 10 - - 13.1 1010.7 1.2
13/07:00am N 8 12 - - - - 10 - - 13.0 1010.5 1.2
13/06:30am N 7 11 - - - - 10 - - 12.8 1010.1 1.2
13/06:00am N 6 9 - - - - 10 - - 12.5 1009.8 1.2
13/05:30am N 7 10 - - - - 10 - - 12.3 1009.6 1.2
13/05:00am N 6 8 - - - - 10 - - 11.8 1009.4 1.2
13/04:30am N 6 8 - - - - 10 - - 12.2 1009.2 1.2
13/04:00am N 6 8 - - - - 10 - - 12.4 1009.1 1.2
13/03:30am N 5 8 - - - - 10 - - 12.7 1009.1 1.2
13/03:00am N 6 8 - - - - 10 - - 12.7 1009.0 1.2
13/02:30am NNE 5 7 - - - - 10 - - 12.3 1009.2 1.2
13/02:00am N 4 6 - - - - 10 - - 12.6 1009.3 1.2
13/01:30am NNE 5 6 - - - - 10 - - 12.5 1009.2 1.2
13/01:00am E 3 4 - - - - 10 - - 11.7 1009.2 0.6
13/12:30am CALM 0 0 - - - - 10 - - 11.6 1009.2 0.4
13/12:00am N 3 4 - - - - 10 - Rain 12.2 1009.0 0.0
 
Date/Time
EST
Wind Sea
Height
m
Swell Vis
km
Cloud Weather Temp
°C
Press
hPa
Rain since
9am
mm
Dir  Spd
kts
Gust
kts
Height
m
Period
s
Dir
12/11:30pm NE 2 4 - - - - 10 - - 12.5 1009.0 0.0
12/11:00pm NE 5 7 - - - - 10 - - 12.6 1009.0 0.0
12/10:30pm NE 5 7 - - - - 10 - - 12.6 1009.1 0.0
12/10:00pm NE 5 6 - - - - 10 - - 12.5 1009.1 0.0
12/09:30pm NNE 5 7 - - - - 10 - - 12.8 1009.2 0.0
12/09:00pm N 6 8 - - - - 10 - - 13.1 1009.2 0.0
12/08:30pm NNE 7 11 - - - - 10 - - 13.4 1009.1 0.0
12/08:00pm N 7 11 - - - - 10 - - 13.4 1009.0 0.0
12/07:30pm N 5 9 - - - - 10 - - 12.9 1009.0 0.0
12/07:00pm N 5 7 - - - - 10 - - 12.6 1008.6 0.0
12/06:30pm N 6 9 - - - - 10 - - 13.2 1008.3 0.0
12/06:00pm N 8 11 - - - - 10 - - 13.5 1007.9 0.0
12/05:30pm N 10 16 - - - - 10 - - 13.5 1007.9 0.0
12/05:00pm N 11 17 - - - - 10 - - 13.5 1007.7 0.0
12/04:30pm N 9 14 - - - - 10 - - 13.9 1007.8 0.0
12/04:00pm N 12 19 - - - - 10 - - 14.2 1007.7 0.0
12/03:30pm N 9 14 - - - - 10 - - 14.5 1007.6 0.0
12/03:00pm NNW 12 18 - - - - 10 - - 14.6 1007.6 0.0
12/02:30pm N 10 18 - - - - 10 - - 14.6 1007.7 0.0
12/02:00pm NNW 11 18 - - - - 10 - - 15.5 1007.8 0.0
12/01:30pm NNW 13 19 - - - - 10 - - 14.4 1008.1 0.0
12/01:00pm NNW 12 20 - - - - 10 - - 14.3 1008.4 0.0
12/12:30pm N 13 21 - - - - 10 - - 14.9 1009.0 0.0
12/12:00pm N 9 19 - - - - 10 - - 13.8 1009.3 0.0
12/11:30am NNW 10 14 - - - - 10 - - 13.5 1009.7 0.0
12/11:00am NNW 11 17 - - - - 10 - - 13.4 1009.9 0.0
12/10:30am NNW 12 19 - - - - 10 - - 14.4 1010.1 0.0
12/10:00am N 9 15 - - - - 10 - - 13.0 1010.3 0.0
12/09:30am NNE 7 12 - - - - 10 - - 12.5 1010.7 0.0
12/09:00am N 8 11 - - - - 10 - - 11.9 1010.9 0.8
12/08:30am N 8 12 - - - - 10 - - 11.7 1011.0 0.8
12/08:00am N 8 14 - - - - 10 - - 11.4 1011.0 0.8
12/07:30am N 9 15 - - - - 10 - - 11.3 1011.3 0.8
12/07:00am N 9 15 - - - - 10 - - 11.2 1011.3 0.8
12/06:30am N 7 18 - - - - 10 - - 11.3 1011.1 0.8
12/06:00am N 8 14 - - - - 10 - Showers 11.2 1011.2 0.6
12/05:30am NNE 4 6 - - - - 10 - - 10.9 1011.3 0.6
12/05:00am N 5 7 - - - - 10 - - 10.9 1011.2 0.2
12/04:30am NNE 5 8 - - - - 10 - - 11.0 1010.9 0.2
12/04:00am N 4 6 - - - - 10 - - 11.5 1011.1 0.2
12/03:30am NNE 5 8 - - - - 10 - - 11.6 1011.1 0.2
12/03:00am NNE 8 13 - - - - 10 - Showers 12.1 1011.2 0.2
12/02:30am NNE 7 11 - - - - 10 - - 12.5 1011.5 0.0
12/02:00am NE 6 11 - - - - 10 - - 12.5 1012.0 0.0
12/01:30am NNE 8 13 - - - - 10 - - 12.8 1012.3 0.0
12/01:00am NNE 7 14 - - - - 10 - - 12.8 1012.5 0.0
12/12:30am NNE 6 10 - - - - 10 - - 12.6 1012.7 0.0
12/12:00am NE 6 9 - - - - 10 - - 12.5 1013.0 0.0
 
Date/Time
EST
Wind Sea
Height
m
Swell Vis
km
Cloud Weather Temp
°C
Press
hPa
Rain since
9am
mm
Dir  Spd
kts
Gust
kts
Height
m
Period
s
Dir
11/11:30pm N 5 7 - - - - 10 - - 11.9 1013.2 0.0
11/11:00pm NNE 5 9 - - - - 10 - - 11.9 1013.2 0.0
11/10:30pm NNE 5 7 - - - - 10 - - 12.0 1013.5 0.0
11/10:00pm N 4 7 - - - - 10 - - 12.0 1013.8 0.0
11/09:30pm N 6 8 - - - - 10 - - 12.3 1013.9 0.0
11/09:00pm NNE 8 12 - - - - 10 - - 12.6 1013.9 0.0
11/08:30pm NNE 6 9 - - - - 10 - - 12.6 1013.9 0.0
11/08:00pm NNE 7 11 - - - - 10 - - 12.8 1013.9 0.0
11/07:30pm NNE 9 16 - - - - 10 - - 13.1 1014.0 0.0
11/07:00pm N 6 12 - - - - 10 - - 13.0 1014.1 0.0
11/06:30pm N 6 10 - - - - 10 - - 13.1 1014.0 0.0
11/06:00pm NNE 7 12 - - - - 10 - - 13.2 1013.7 0.0
11/05:30pm NNE 7 13 - - - - 10 - - 13.4 1013.6 0.0
11/05:00pm NNE 9 17 - - - - 10 - - 13.7 1014.0 0.0
11/04:30pm NNE 10 14 - - - - 10 - - 13.8 1014.2 0.0
11/04:00pm N 12 19 - - - - 10 - - 13.9 1014.4 0.0
11/03:30pm N 10 17 - - - - 10 - - 14.9 1014.5 0.0
11/03:00pm N 12 19 - - - - 10 - - 15.1 1015.2 0.0
11/02:30pm N 13 21 - - - - 10 - - 14.5 1015.1 0.0
11/02:00pm N 15 24 - - - - 10 - - 14.7 1015.7 0.0
11/01:30pm N 15 20 - - - - 10 - - 14.8 1016.0 0.0
11/01:00pm N 11 17 - - - - 10 - - 14.7 1016.1 0.0
11/12:30pm N 15 22 - - - - 10 - - 13.7 1016.9 0.0
11/12:00pm N 13 21 - - - - 10 - - 13.4 1017.6 0.0
11/11:30am N 11 17 - - - - 10 - - 13.8 1018.1 0.0
11/11:00am N 11 17 - - - - 10 - - 13.0 1018.3 0.0
11/10:30am N 10 16 - - - - 10 - - 12.4 1018.4 0.0
11/10:00am N 6 10 - - - - 10 - - 11.4 1018.6 0.0
11/09:30am N 7 10 - - - - 10 - - 10.8 1018.7 0.0
11/09:00am N 5 10 - - - - 10 - - 9.4 1018.8 0.0
11/08:30am N 5 7 - - - - 10 - - 8.7 1019.2 0.0
11/08:00am N 5 7 - - - - 10 - - 7.7 1019.4 0.0
11/07:30am N 4 7 - - - - 10 - - 7.0 1019.2 0.0
11/07:00am N 4 7 - - - - 10 - - 7.0 1018.8 0.0
11/06:30am NNE 4 6 - - - - 10 - - 5.8 1018.4 0.0
11/06:00am NNE 3 6 - - - - 10 - - 5.6 1018.6 0.0
11/05:30am N 3 6 - - - - 10 - - 6.4 1018.8 0.0
11/05:00am N 5 7 - - - - 10 - - 7.1 1019.0 0.0
11/04:30am CALM 0 3 - - - - 10 - - 4.4 1019.5 0.0
11/04:00am NNE 4 5 - - - - 10 - - 5.6 1019.4 0.0
11/03:30am NNE 5 6 - - - - 10 - - 5.6 1019.3 0.0
11/03:00am NE 5 7 - - - - 10 - - 6.1 1019.6 0.0
11/02:30am NNE 5 7 - - - - 10 - - 6.6 1019.7 0.0
11/02:00am NE 6 8 - - - - 10 - - 6.4 1019.7 0.0
11/01:30am NNE 6 8 - - - - 10 - - 6.3 1019.5 0.0
11/01:00am N 4 5 - - - - 10 - - 6.3 1019.5 0.0
11/12:30am NNE 4 6 - - - - 10 - - 6.6 1019.7 0.0
11/12:00am NNE 5 6 - - - - 10 - - 7.1 1019.9 0.0
 
Date/Time
EST
Wind Sea
Height
m
Swell Vis
km
Cloud Weather Temp
°C
Press
hPa
Rain since
9am
mm
Dir  Spd
kts
Gust
kts
Height
m
Period
s
Dir
10/11:30pm NNE 5 6 - - - - 10 - - 7.5 1020.0 0.0
10/11:00pm NNE 4 6 - - - - 10 - - 7.8 1020.1 0.0
10/10:30pm NNE 6 7 - - - - 10 - - 8.5 1020.3 0.0
10/10:00pm NNE 5 7 - - - - 10 - - 9.0 1020.4 0.0
10/09:30pm NNE 4 6 - - - - 10 - - 8.6 1020.2 0.0
10/09:00pm CALM 0 0 - - - - 10 - - 7.4 1020.1 0.0
10/08:30pm CALM 0 0 - - - - 10 - - 7.8 1020.1 0.0
10/08:00pm CALM 0 0 - - - - 10 - - 8.2 1020.0 0.0
10/07:30pm CALM 0 0 - - - - 10 - - 8.5 1019.8 0.0
10/07:00pm CALM 0 0 - - - - 10 - - 9.1 1019.5 0.0
10/06:30pm CALM 0 0 - - - - 10 - - 9.7 1019.0 0.0
10/06:00pm CALM 0 0 - - - - 10 - - 10.7 1018.9 0.0
10/05:30pm CALM 0 0 - - - - 10 - - 12.0 1018.8 0.0
10/05:00pm SSW 2 4 - - - - 10 - - 13.4 1019.1 0.0
10/04:30pm SSW 4 6 - - - - 10 - - 14.1 1019.4 0.0
10/04:00pm S 4 7 - - - - 10 - - 14.4 1019.8 0.0
10/03:30pm WSW 4 6 - - - - 10 - - 14.5 1020.1 0.0
10/03:00pm SSW 4 6 - - - - 10 - - 14.3 1020.1 0.0
10/02:30pm SSW 5 8 - - - - 10 - - 13.8 1020.4 0.0
10/02:00pm S 5 8 - - - - 10 - - 13.6 1020.7 0.0
10/01:30pm S 5 7 - - - - 10 - - 13.7 1020.9 0.0
10/01:00pm SSW 5 7 - - - - 10 - - 13.3 1021.2 0.0
10/12:30pm S 3 7 - - - - 10 - - 13.3 1021.6 0.0
10/12:00pm WSW 4 6 - - - - 10 - - 13.3 1022.2 0.0
10/11:30am NW 4 6 - - - - 10 - - 13.1 1022.7 0.0
10/11:00am NE 1 5 - - - - 10 - - 12.8 1022.8 0.0
10/10:30am CALM 0 3 - - - - 10 - - 12.7 1023.0 0.0
10/10:00am ENE 1 4 - - - - 10 - - 11.9 1023.2 0.0
10/09:30am CALM 0 3 - - - - 10 - - 10.7 1023.2 0.0
10/09:00am N 2 4 - - - - 10 - - 9.5 1023.4 0.0
10/08:30am CALM 0 0 - - - - 10 - - 7.9 1023.3 0.0
10/08:00am CALM 0 0 - - - - 10 - - 6.1 1022.9 0.0

Other formats

Comma delimited format used in spreadsheet applications
http://www.bom.gov.au/fwo/IDV60701/IDV60701.95936.axf

JavaScript Object Notation format (JSON) in row-major order
http://www.bom.gov.au/fwo/IDV60701/IDV60701.95936.json

Data quality

Most of these data are generated automatically and are frequently updated. Quality checks on data are not normally performed. It is possible for incorrect values to appear. Refer to information at About Latest Weather Observations and please check the disclaimer before using these data.